createdAt,value
2018-03-16T00:00:27.850Z,18.97
2018-03-16T00:02:56.879Z,20.00
2018-03-16T00:05:25.167Z,18.63
2018-03-16T00:07:53.461Z,22.00
2018-03-16T00:10:21.790Z,22.43
2018-03-16T00:12:50.809Z,22.67
2018-03-16T00:15:19.073Z,18.53
2018-03-16T00:17:47.322Z,18.07
2018-03-16T00:20:15.602Z,18.60
2018-03-16T00:22:43.890Z,22.40
2018-03-16T00:25:12.303Z,20.17
2018-03-16T00:27:40.580Z,20.57
2018-03-16T00:30:08.828Z,20.47
2018-03-16T00:32:37.114Z,18.80
2018-03-16T00:35:06.108Z,21.80
2018-03-16T00:37:34.372Z,22.43
2018-03-16T00:40:02.831Z,23.27
2018-03-16T00:42:31.276Z,21.13
2018-03-16T00:45:00.334Z,22.77
2018-03-16T00:47:28.590Z,26.10
2018-03-16T00:49:57.646Z,25.27
2018-03-16T00:52:25.890Z,27.20
2018-03-16T00:54:54.161Z,28.27
2018-03-16T00:57:22.433Z,24.40
2018-03-16T00:59:50.695Z,24.67
2018-03-16T01:02:18.962Z,26.20
2018-03-16T01:04:47.238Z,27.87
2018-03-16T01:07:15.481Z,21.80
2018-03-16T01:09:43.761Z,25.60
2018-03-16T01:12:12.006Z,26.47
2018-03-16T01:14:40.485Z,23.90
2018-03-16T01:17:08.724Z,26.57
2018-03-16T01:19:37.725Z,27.60
2018-03-16T01:22:05.997Z,27.07
2018-03-16T01:24:34.233Z,29.60
2018-03-16T01:27:02.511Z,28.60
2018-03-16T01:29:30.765Z,32.37
2018-03-16T01:31:58.998Z,28.13
2018-03-16T01:34:28.029Z,27.47
2018-03-16T01:36:56.464Z,29.70
2018-03-16T01:39:24.693Z,28.47
2018-03-16T01:41:53.071Z,27.50
2018-03-16T01:44:23.058Z,28.30
2018-03-16T01:46:52.074Z,27.30
2018-03-16T01:49:20.408Z,29.37
2018-03-16T01:51:48.661Z,23.93
2018-03-16T01:54:17.718Z,30.67
2018-03-16T01:56:45.973Z,26.27
2018-03-16T01:59:14.430Z,26.07
2018-03-16T02:01:42.673Z,24.77
2018-03-16T02:04:10.905Z,24.67
2018-03-16T02:06:39.958Z,25.57
2018-03-16T02:09:08.201Z,24.20
2018-03-16T02:11:36.470Z,22.00
2018-03-16T02:14:04.732Z,24.10
2018-03-16T02:16:33.147Z,25.53
2018-03-16T02:19:01.377Z,24.17
2018-03-16T02:21:29.739Z,24.90
2018-03-16T02:23:59.070Z,25.13
2018-03-16T02:26:27.322Z,27.67
2018-03-16T02:28:55.614Z,28.80
2018-03-16T02:31:23.899Z,25.23
2018-03-16T02:33:52.166Z,27.27
2018-03-16T02:36:20.629Z,25.30
2018-03-16T02:38:48.863Z,28.23
2018-03-16T02:41:17.302Z,28.23
2018-03-16T02:43:46.436Z,28.27
2018-03-16T02:46:14.759Z,28.60
2018-03-16T02:48:42.997Z,28.57
2018-03-16T02:51:11.230Z,25.13
2018-03-16T02:53:39.582Z,26.30
2018-03-16T02:56:07.788Z,23.07
2018-03-16T02:58:36.036Z,24.60
2018-03-16T03:01:05.076Z,23.70
2018-03-16T03:03:33.321Z,23.80
2018-03-16T03:06:01.789Z,23.20
2018-03-16T03:08:30.064Z,25.00
2018-03-16T03:10:58.409Z,24.20
2018-03-16T03:13:26.785Z,24.90
2018-03-16T03:15:55.053Z,27.17
2018-03-16T03:18:23.329Z,25.33
2018-03-16T03:20:51.720Z,24.50
2018-03-16T03:23:20.132Z,25.50
2018-03-16T03:25:48.364Z,26.90
2018-03-16T03:28:16.587Z,25.13
2018-03-16T03:30:45.618Z,29.47
2018-03-16T03:33:13.893Z,26.87
2018-03-16T03:35:42.798Z,27.67
2018-03-16T03:38:11.234Z,25.47
2018-03-16T03:40:39.701Z,26.40
2018-03-16T03:43:08.617Z,27.43
2018-03-16T03:45:36.857Z,25.27
2018-03-16T03:48:05.157Z,30.73
2018-03-16T03:50:33.607Z,28.93
2018-03-16T03:53:01.910Z,23.13
2018-03-16T03:55:30.517Z,23.83
2018-03-16T03:57:58.782Z,25.87
2018-03-16T04:00:28.089Z,23.33
2018-03-16T04:02:57.282Z,25.43
2018-03-16T04:05:29.595Z,23.57
2018-03-16T04:07:57.887Z,25.40
2018-03-16T04:10:26.133Z,27.20
2018-03-16T04:12:54.462Z,26.43
2018-03-16T04:15:22.677Z,23.53
2018-03-16T04:17:51.057Z,23.07
2018-03-16T04:20:19.435Z,25.50
2018-03-16T04:22:47.701Z,26.83
2018-03-16T04:25:15.956Z,22.90
2018-03-16T04:27:44.978Z,25.83
2018-03-16T04:30:13.370Z,26.13
2018-03-16T04:32:41.605Z,28.37
2018-03-16T04:35:10.637Z,27.63
2018-03-16T04:37:38.869Z,24.87
2018-03-16T04:40:08.403Z,26.90
2018-03-16T04:42:36.854Z,27.50
2018-03-16T04:45:06.585Z,28.70
2018-03-16T04:47:35.098Z,29.87
2018-03-16T04:50:03.404Z,26.67
2018-03-16T04:52:31.709Z,33.40
2018-03-16T04:55:00.774Z,33.33
2018-03-16T04:57:29.014Z,29.27
2018-03-16T04:59:57.271Z,28.33
2018-03-16T05:02:25.545Z,30.80
2018-03-16T05:04:53.800Z,31.33
2018-03-16T05:07:22.030Z,30.77
2018-03-16T05:09:50.298Z,32.03
2018-03-16T05:12:18.546Z,34.80
2018-03-16T05:14:47.660Z,30.83
2018-03-16T05:17:15.905Z,29.03
2018-03-16T05:19:45.131Z,32.07
2018-03-16T05:22:14.257Z,30.27
2018-03-16T05:24:42.544Z,32.07
2018-03-16T05:27:10.822Z,31.73
2018-03-16T05:29:39.794Z,34.70
2018-03-16T05:32:08.119Z,32.40
2018-03-16T05:34:36.364Z,31.67
2018-03-16T05:37:04.671Z,33.57
2018-03-16T05:39:35.336Z,31.70
2018-03-16T05:42:04.441Z,33.90
2018-03-16T05:44:32.720Z,35.03
2018-03-16T05:47:00.996Z,30.53
2018-03-16T05:49:29.286Z,34.40
2018-03-16T05:51:57.547Z,34.23
2018-03-16T05:54:25.848Z,34.50
2018-03-16T05:56:54.141Z,31.20
2018-03-16T05:59:24.071Z,36.30
2018-03-16T06:01:53.146Z,30.77
2018-03-16T06:04:21.409Z,30.97
2018-03-16T06:06:51.182Z,31.20
2018-03-16T06:09:20.396Z,32.27
2018-03-16T06:11:48.829Z,28.50
2018-03-16T06:14:17.083Z,30.70
2018-03-16T06:16:46.349Z,28.90
2018-03-16T06:19:14.629Z,29.90
2018-03-16T06:21:43.737Z,34.23
2018-03-16T06:24:12.962Z,35.50
2018-03-16T06:26:41.298Z,31.83
2018-03-16T06:29:11.366Z,30.03
2018-03-16T06:31:41.482Z,29.80
2018-03-16T06:34:10.643Z,32.87
2018-03-16T06:36:45.299Z,30.30
2018-03-16T06:39:20.319Z,28.87
2018-03-16T06:41:48.547Z,33.10
2018-03-16T06:44:18.425Z,29.00
2018-03-16T06:46:47.437Z,32.80
2018-03-16T06:49:15.872Z,31.17
2018-03-16T06:51:44.114Z,32.70
2018-03-16T06:54:12.466Z,29.60
2018-03-16T06:56:40.737Z,32.93
2018-03-16T06:59:09.738Z,36.13
2018-03-16T07:01:37.981Z,32.13
2018-03-16T07:04:06.288Z,30.73
2018-03-16T07:06:36.112Z,26.67
2018-03-16T07:09:05.122Z,30.77
2018-03-16T07:11:33.428Z,33.80
2018-03-16T07:14:01.697Z,26.23
2018-03-16T07:16:30.584Z,25.87
2018-03-16T07:18:58.873Z,23.70
2018-03-16T07:21:27.105Z,25.50
2018-03-16T07:23:55.511Z,22.47
2018-03-16T07:26:23.766Z,21.93
2018-03-16T07:28:52.785Z,21.77
2018-03-16T07:31:22.678Z,19.40
2018-03-16T07:33:50.952Z,22.77
2018-03-16T07:36:19.190Z,18.93
2018-03-16T07:38:47.490Z,16.93
2018-03-16T07:41:15.740Z,17.33
2018-03-16T07:43:43.977Z,16.50
2018-03-16T07:46:16.143Z,16.80
2018-03-16T07:48:46.490Z,14.97
2018-03-16T07:51:14.765Z,16.00
2018-03-16T07:53:43.035Z,17.63
2018-03-16T07:56:11.276Z,16.97
2018-03-16T07:58:40.280Z,17.00
2018-03-16T08:01:08.560Z,17.53
2018-03-16T08:03:36.788Z,15.90
2018-03-16T08:06:05.916Z,16.37
2018-03-16T08:08:34.174Z,16.67
2018-03-16T08:11:03.961Z,18.20
2018-03-16T08:13:32.372Z,16.10
2018-03-16T08:16:00.629Z,19.00
2018-03-16T08:18:28.884Z,15.47
2018-03-16T08:20:57.153Z,16.60
2018-03-16T08:23:25.413Z,17.57
2018-03-16T08:25:54.540Z,17.93
2018-03-16T08:28:23.666Z,17.00
2018-03-16T08:30:51.900Z,16.40
2018-03-16T08:33:20.129Z,15.40
2018-03-16T08:35:51.160Z,17.33
2018-03-16T08:38:20.137Z,16.17
2018-03-16T08:40:48.400Z,16.67
2018-03-16T08:43:16.674Z,15.50
2018-03-16T08:45:44.929Z,15.10
2018-03-16T08:48:13.197Z,15.40
2018-03-16T08:50:41.515Z,13.87
2018-03-16T08:53:09.751Z,15.17
2018-03-16T08:55:38.226Z,15.77
2018-03-16T08:58:07.463Z,14.70
2018-03-16T09:00:35.913Z,15.50
2018-03-16T09:03:04.244Z,17.03
2018-03-16T09:05:34.017Z,17.03
2018-03-16T09:08:02.257Z,16.10
2018-03-16T09:10:30.522Z,15.60
2018-03-16T09:12:58.785Z,14.30
2018-03-16T09:15:27.016Z,14.87
2018-03-16T09:17:55.274Z,16.80
2018-03-16T09:20:23.501Z,15.43
2018-03-16T09:22:52.541Z,15.43
2018-03-16T09:25:20.771Z,14.90
2018-03-16T09:27:49.073Z,14.03
2018-03-16T09:30:18.358Z,16.53
2018-03-16T09:32:47.764Z,16.20
2018-03-16T09:35:16.013Z,15.10
2018-03-16T09:37:44.261Z,16.93
2018-03-16T09:40:12.500Z,16.73
2018-03-16T09:42:40.886Z,17.10
2018-03-16T09:45:09.125Z,17.40
2018-03-16T09:47:37.378Z,16.90
2018-03-16T09:50:07.190Z,15.87
2018-03-16T09:52:35.557Z,16.10
2018-03-16T09:55:16.550Z,16.40
2018-03-16T09:57:44.843Z,15.10
2018-03-16T10:00:13.081Z,16.63
2018-03-16T10:02:41.334Z,14.73
2018-03-16T10:05:10.345Z,15.40
2018-03-16T10:07:38.617Z,13.60
2018-03-16T10:10:07.987Z,15.97
2018-03-16T10:12:36.235Z,14.90
2018-03-16T10:15:04.487Z,15.60
2018-03-16T10:17:32.717Z,16.90
2018-03-16T10:20:01.844Z,17.90
2018-03-16T10:22:30.111Z,16.27
2018-03-16T10:24:59.117Z,15.23
2018-03-16T10:27:28.235Z,16.30
2018-03-16T10:29:56.601Z,16.63
2018-03-16T10:32:24.832Z,15.43
2018-03-16T10:34:54.615Z,14.63
2018-03-16T10:37:23.019Z,13.23
2018-03-16T10:39:51.821Z,15.10
2018-03-16T10:42:21.472Z,14.87
2018-03-16T10:44:49.792Z,15.67
2018-03-16T10:47:18.039Z,14.33
2018-03-16T10:49:46.353Z,15.23
2018-03-16T10:52:15.389Z,14.20
2018-03-16T10:54:43.644Z,14.73
2018-03-16T10:57:11.900Z,17.70
2018-03-16T10:59:40.156Z,15.57
2018-03-16T11:02:14.195Z,15.40
2018-03-16T11:04:42.429Z,16.10
2018-03-16T11:07:19.713Z,14.70
2018-03-16T11:09:48.072Z,16.50
2018-03-16T11:12:16.314Z,17.47
2018-03-16T11:14:44.554Z,17.90
2018-03-16T11:17:12.885Z,20.03
2018-03-16T11:19:41.283Z,20.40
2018-03-16T11:22:09.517Z,16.77
2018-03-16T11:24:38.519Z,17.00
2018-03-16T11:27:06.792Z,16.97
2018-03-16T11:29:35.190Z,16.67
2018-03-16T11:32:03.453Z,18.37
2018-03-16T11:34:34.718Z,18.77
2018-03-16T11:37:02.965Z,19.50
2018-03-16T11:39:32.093Z,16.63
2018-03-16T11:42:00.410Z,19.23
2018-03-16T11:44:30.208Z,19.90
2018-03-16T11:46:58.449Z,17.17
2018-03-16T11:49:26.707Z,16.37
2018-03-16T11:51:57.188Z,16.63
2018-03-16T11:54:27.162Z,17.97
2018-03-16T11:56:58.402Z,17.47
2018-03-16T11:59:27.753Z,17.53
2018-03-16T12:01:56.809Z,18.30
2018-03-16T12:04:25.093Z,19.50
2018-03-16T12:06:53.337Z,18.60
2018-03-16T12:09:21.645Z,18.17
2018-03-16T12:11:49.901Z,17.90
2018-03-16T12:14:18.640Z,20.80
2018-03-16T12:16:46.868Z,17.57
2018-03-16T12:19:15.771Z,18.07
2018-03-16T12:21:44.014Z,19.13
2018-03-16T12:24:13.061Z,18.00
2018-03-16T12:26:41.656Z,15.43
2018-03-16T12:29:09.891Z,16.20
2018-03-16T12:31:39.090Z,17.73
2018-03-16T12:34:07.701Z,21.17
2018-03-16T12:36:35.929Z,17.97
2018-03-16T12:39:05.767Z,16.67
2018-03-16T12:41:34.110Z,18.43
2018-03-16T12:44:04.081Z,16.00
2018-03-16T12:46:32.325Z,15.40
2018-03-16T12:49:00.583Z,14.60
2018-03-16T12:51:29.703Z,16.40
2018-03-16T12:53:58.831Z,15.20
2018-03-16T12:56:27.990Z,15.97
2018-03-16T12:58:57.011Z,17.70
2018-03-16T13:01:25.276Z,20.33
2018-03-16T13:03:53.579Z,14.77
2018-03-16T13:06:22.617Z,14.10
2018-03-16T13:08:50.862Z,13.90
2018-03-16T13:11:19.155Z,15.23
2018-03-16T13:13:47.386Z,14.50
2018-03-16T13:16:15.628Z,16.23
2018-03-16T13:18:44.807Z,15.53
2018-03-16T13:21:13.097Z,13.10
2018-03-16T13:23:41.370Z,13.40
2018-03-16T13:26:09.589Z,11.90
2018-03-16T13:28:38.036Z,13.07
2018-03-16T13:31:06.299Z,11.50
2018-03-16T13:33:35.316Z,11.97
2018-03-16T13:36:04.422Z,11.53
2018-03-16T13:38:32.690Z,13.53
2018-03-16T13:41:01.145Z,11.33
2018-03-16T13:43:29.627Z,10.43
2018-03-16T13:45:58.678Z,12.03
2018-03-16T13:48:26.980Z,10.40
2018-03-16T13:50:56.232Z,9.30
2018-03-16T13:53:25.268Z,10.97
2018-03-16T13:55:54.480Z,9.23
2018-03-16T13:58:22.762Z,10.27
2018-03-16T14:00:51.465Z,9.60
2018-03-16T14:03:19.733Z,9.20
2018-03-16T14:05:48.031Z,10.33
2018-03-16T14:08:16.410Z,8.30
2018-03-16T14:10:45.438Z,12.90
2018-03-16T14:13:13.839Z,7.60
2018-03-16T14:15:42.071Z,10.63
2018-03-16T14:18:10.343Z,7.57
2018-03-16T14:20:39.466Z,6.87
2018-03-16T14:23:07.784Z,7.20
2018-03-16T14:25:36.010Z,6.83
2018-03-16T14:28:04.278Z,8.40
2018-03-16T14:30:34.621Z,6.97
2018-03-16T14:33:02.853Z,7.10
2018-03-16T14:35:31.860Z,6.93
2018-03-16T14:38:01.246Z,7.10
2018-03-16T14:40:29.653Z,6.70
2018-03-16T14:42:57.888Z,8.30
2018-03-16T14:45:26.269Z,6.97
2018-03-16T14:47:54.527Z,6.33
2018-03-16T14:50:22.771Z,6.20
2018-03-16T14:52:51.046Z,10.13
2018-03-16T14:55:19.366Z,5.73
2018-03-16T14:57:47.595Z,6.87
2018-03-16T15:00:15.869Z,6.80
2018-03-16T15:02:44.123Z,7.00
2018-03-16T15:05:12.374Z,6.73
2018-03-16T15:07:40.626Z,6.40
2018-03-16T15:10:09.091Z,6.77
2018-03-16T15:12:37.366Z,7.27
2018-03-16T15:15:07.677Z,8.13
2018-03-16T15:17:35.944Z,7.30
2018-03-16T15:20:04.285Z,8.40
2018-03-16T15:22:33.734Z,7.60
2018-03-16T15:25:03.089Z,11.47
2018-03-16T15:27:32.170Z,10.53
2018-03-16T15:30:00.427Z,8.87
2018-03-16T15:32:28.738Z,11.20
2018-03-16T15:34:57.018Z,8.87
2018-03-16T15:37:25.396Z,8.40
2018-03-16T15:39:53.809Z,8.80
2018-03-16T15:42:22.263Z,8.70
2018-03-16T15:44:50.470Z,8.80
2018-03-16T15:47:18.750Z,10.07
2018-03-16T15:49:46.993Z,9.80
2018-03-16T15:52:16.048Z,10.30
2018-03-16T15:54:44.321Z,10.40
2018-03-16T15:57:12.736Z,9.00
2018-03-16T15:59:41.212Z,8.80
2018-03-16T16:02:09.515Z,9.47
2018-03-16T16:04:37.741Z,10.53
2018-03-16T16:07:07.579Z,11.10
2018-03-16T16:09:35.827Z,11.57
2018-03-16T16:12:04.049Z,11.17
2018-03-16T16:14:32.353Z,10.10
2018-03-16T16:17:00.622Z,11.13
2018-03-16T16:19:28.881Z,9.83
2018-03-16T16:21:57.543Z,10.43
2018-03-16T16:24:27.419Z,10.50
2018-03-16T16:26:55.717Z,10.87
2018-03-16T16:29:24.637Z,11.00
2018-03-16T16:31:52.927Z,11.60
2018-03-16T16:34:21.882Z,11.83
2018-03-16T16:36:50.182Z,10.77
2018-03-16T16:39:18.447Z,11.30
2018-03-16T16:41:46.667Z,12.37
2018-03-16T16:44:14.930Z,13.03
2018-03-16T16:46:43.980Z,11.57
2018-03-16T16:49:12.240Z,12.50
2018-03-16T16:51:40.494Z,14.37
2018-03-16T16:54:08.786Z,13.00
2018-03-16T16:56:37.066Z,13.83
2018-03-16T16:59:06.269Z,13.23
2018-03-16T17:01:34.533Z,15.20
2018-03-16T17:04:02.817Z,13.60
2018-03-16T17:06:31.871Z,13.27
2018-03-16T17:09:00.156Z,13.10
2018-03-16T17:11:28.421Z,13.13
2018-03-16T17:13:57.438Z,13.10
2018-03-16T17:16:25.699Z,12.30
2018-03-16T17:18:54.869Z,12.90
2018-03-16T17:21:23.154Z,13.83
2018-03-16T17:23:52.244Z,12.93
2018-03-16T17:26:21.314Z,13.80
2018-03-16T17:28:50.301Z,12.83
2018-03-16T17:31:18.656Z,12.50
2018-03-16T17:33:46.930Z,12.73
2018-03-16T17:36:15.181Z,12.77
2018-03-16T17:38:43.460Z,12.17
2018-03-16T17:41:11.702Z,11.30
2018-03-16T17:43:40.023Z,12.00
2018-03-16T17:46:08.331Z,13.30
2018-03-16T17:48:38.602Z,12.00
2018-03-16T17:51:06.839Z,13.95
2018-03-16T17:53:35.141Z,13.37
2018-03-16T17:56:03.461Z,12.47
2018-03-16T17:58:31.746Z,15.57
2018-03-16T18:01:00.027Z,12.20
2018-03-16T18:03:28.553Z,12.03
2018-03-16T18:05:56.864Z,12.30
2018-03-16T18:08:25.309Z,10.87
2018-03-16T18:10:53.545Z,12.47
2018-03-16T18:13:23.362Z,11.57
2018-03-16T18:15:52.373Z,12.00
2018-03-16T18:18:20.641Z,13.13
2018-03-16T18:20:48.956Z,12.27
2018-03-16T18:23:18.938Z,12.23
2018-03-16T18:25:47.960Z,11.57
2018-03-16T18:28:16.252Z,12.50
2018-03-16T18:30:45.485Z,12.93
2018-03-16T18:33:14.757Z,11.07
2018-03-16T18:35:43.794Z,11.63
2018-03-16T18:38:13.490Z,12.00
2018-03-16T18:40:42.164Z,10.70
2018-03-16T18:43:10.495Z,11.37
2018-03-16T18:45:39.009Z,11.33
2018-03-16T18:48:07.907Z,11.60
2018-03-16T18:50:36.204Z,11.40
2018-03-16T18:53:04.553Z,12.63
2018-03-16T18:55:33.008Z,12.87
2018-03-16T18:58:01.250Z,11.47
2018-03-16T19:00:29.556Z,11.90
2018-03-16T19:02:57.810Z,10.93
2018-03-16T19:05:26.099Z,12.47
2018-03-16T19:07:54.402Z,12.67
2018-03-16T19:10:22.646Z,11.03
2018-03-16T19:12:50.918Z,10.83
2018-03-16T19:15:19.238Z,13.80
2018-03-16T19:17:48.541Z,11.00
2018-03-16T19:20:16.811Z,11.57
2018-03-16T19:22:45.113Z,10.97
2018-03-16T19:25:13.365Z,11.27
2018-03-16T19:27:41.624Z,10.97
2018-03-16T19:30:09.930Z,11.88
2018-03-16T19:32:38.176Z,10.63
2018-03-16T19:35:06.503Z,10.50
2018-03-16T19:37:34.756Z,11.47
2018-03-16T19:40:03.043Z,10.57
2018-03-16T19:42:31.316Z,10.50
2018-03-16T19:44:59.577Z,10.37
2018-03-16T19:47:27.825Z,10.50
2018-03-16T19:49:56.082Z,11.20
2018-03-16T19:52:24.396Z,11.10
2018-03-16T19:54:52.682Z,12.50
2018-03-16T19:57:21.087Z,10.73
2018-03-16T19:59:49.338Z,9.70
2018-03-16T20:02:18.389Z,9.57
2018-03-16T20:04:46.715Z,12.67
2018-03-16T20:07:15.790Z,11.93
2018-03-16T20:09:44.061Z,12.57
2018-03-16T20:12:14.097Z,11.80
2018-03-16T20:14:43.811Z,12.27
2018-03-16T20:17:12.233Z,11.87
2018-03-16T20:19:40.507Z,11.27
2018-03-16T20:22:08.749Z,12.60
2018-03-16T20:24:37.036Z,13.77
2018-03-16T20:27:05.324Z,11.50
2018-03-16T20:29:33.666Z,11.80
2018-03-16T20:32:02.717Z,12.53
2018-03-16T20:34:31.775Z,12.37
2018-03-16T20:37:00.044Z,14.17
2018-03-16T20:39:28.288Z,13.17
2018-03-16T20:41:57.774Z,11.73
2018-03-16T20:44:26.050Z,14.93
2018-03-16T20:46:56.202Z,12.80
2018-03-16T20:49:25.350Z,12.80
2018-03-16T20:51:54.531Z,13.03
2018-03-16T20:54:22.830Z,11.60
2018-03-16T20:56:51.087Z,12.77
2018-03-16T20:59:19.398Z,12.10
2018-03-16T21:01:47.853Z,12.43
2018-03-16T21:04:16.135Z,14.13
2018-03-16T21:06:44.409Z,11.70
2018-03-16T21:09:12.672Z,12.63
2018-03-16T21:11:41.065Z,15.07
2018-03-16T21:14:09.368Z,13.67
2018-03-16T21:16:37.627Z,11.90
2018-03-16T21:19:06.009Z,12.57
2018-03-16T21:21:34.317Z,12.20
2018-03-16T21:24:02.572Z,12.73
2018-03-16T21:26:30.887Z,11.70
2018-03-16T21:28:59.601Z,12.37
2018-03-16T21:31:29.038Z,12.30
2018-03-16T21:33:57.421Z,14.10
2018-03-16T21:36:25.669Z,14.20
2018-03-16T21:38:53.927Z,12.03
2018-03-16T21:41:22.467Z,11.90
2018-03-16T21:43:50.763Z,15.20
2018-03-16T21:46:20.151Z,13.43
2018-03-16T21:48:48.370Z,12.30
2018-03-16T21:51:16.631Z,13.53
2018-03-16T21:53:44.960Z,13.83
2018-03-16T21:56:13.411Z,13.50
2018-03-16T21:58:41.702Z,13.53
2018-03-16T22:01:10.922Z,13.03
2018-03-16T22:03:39.207Z,12.33
2018-03-16T22:06:08.117Z,12.50
2018-03-16T22:08:37.997Z,12.10
2018-03-16T22:11:06.307Z,12.80
2018-03-16T22:13:34.546Z,11.90
2018-03-16T22:16:02.989Z,12.63
2018-03-16T22:18:31.307Z,11.43
2018-03-16T22:20:59.584Z,12.30
2018-03-16T22:23:27.849Z,11.90
2018-03-16T22:25:56.157Z,13.63
2018-03-16T22:28:24.434Z,12.60
2018-03-16T22:30:52.751Z,12.10
2018-03-16T22:33:21.010Z,11.97
2018-03-16T22:35:50.046Z,12.37
2018-03-16T22:38:18.323Z,10.87
2018-03-16T22:40:46.911Z,11.87
2018-03-16T22:43:15.154Z,10.77
2018-03-16T22:45:43.427Z,11.30
2018-03-16T22:48:12.491Z,11.10
2018-03-16T22:50:40.766Z,11.77
2018-03-16T22:53:09.836Z,10.40
2018-03-16T22:55:38.076Z,11.00
2018-03-16T22:58:06.444Z,10.90
2018-03-16T23:00:34.979Z,10.57
2018-03-16T23:03:05.042Z,10.97
2018-03-16T23:05:33.335Z,11.70
2018-03-16T23:08:01.612Z,12.40
2018-03-16T23:10:29.922Z,10.03
2018-03-16T23:12:58.967Z,11.00
2018-03-16T23:15:27.217Z,11.20
2018-03-16T23:17:55.461Z,10.40
2018-03-16T23:20:23.717Z,11.20
2018-03-16T23:22:51.981Z,10.57
2018-03-16T23:25:20.278Z,9.40
2018-03-16T23:27:48.556Z,10.27
2018-03-16T23:30:16.786Z,9.50
2018-03-16T23:32:45.089Z,9.10
2018-03-16T23:35:13.540Z,9.87
2018-03-16T23:37:41.806Z,9.93
2018-03-16T23:40:11.587Z,10.70
2018-03-16T23:42:39.829Z,9.63
2018-03-16T23:45:08.070Z,9.83
2018-03-16T23:47:36.316Z,10.17
2018-03-16T23:50:04.574Z,11.30
2018-03-16T23:52:32.845Z,9.40
2018-03-16T23:55:01.107Z,9.27
2018-03-16T23:57:29.383Z,10.60
2018-03-16T23:59:57.658Z,11.10
